Time;durP1;ratioP1;P1;durP2;ratioP2;P2;SDS_P1;SDS_P2;PMS_P1;PMS_P2;Temp;Humidity;BMP_temperature;BMP_pressure;BME280_temperature;BME280_humidity;BME280_pressure;Samples;Min_cycle;Max_cycle;Signal;HPM_P1;HPM_P2
2021/09/24 00:00:34;;;;;;;1.83;1.05;;;21.50;50.50;;;25.48;33.71;100922.03;5114550;28;20055;-11
2021/09/24 00:03:00;;;;;;;1.25;0.90;;;21.60;50.50;;;25.48;33.77;100916.69;5114445;28;20043;-11
2021/09/24 00:05:27;;;;;;;2.42;1.00;;;21.60;50.50;;;25.47;33.91;100909.59;5114443;28;20073;-11
2021/09/24 00:07:52;;;;;;;1.10;1.00;;;21.60;50.60;;;25.47;33.80;100910.44;5114202;28;20188;-10
2021/09/24 00:10:20;;;;;;;0.70;0.70;;;21.50;50.50;;;25.47;33.78;100907.78;5114292;28;20051;-11
2021/09/24 00:12:46;;;;;;;2.05;1.33;;;21.50;50.60;;;25.43;33.78;100895.63;5114396;28;20077;-11
2021/09/24 00:15:15;;;;;;;1.77;0.98;;;21.50;50.60;;;25.45;33.92;100906.22;5114350;28;20055;-11
2021/09/24 00:17:42;;;;;;;1.52;1.10;;;21.60;50.50;;;25.47;33.95;100909.59;5109776;28;20048;-11
2021/09/24 00:20:09;;;;;;;1.00;0.90;;;21.60;50.50;;;25.45;33.85;100908.88;5114175;28;20047;-11
2021/09/24 00:22:36;;;;;;;1.33;0.90;;;21.60;50.50;;;25.45;33.83;100909.72;5114159;28;20043;-11
2021/09/24 00:25:01;;;;;;;2.15;0.93;;;21.50;50.40;;;25.44;33.81;100908.03;5114082;28;20048;-11
2021/09/24 00:27:27;;;;;;;1.08;0.98;;;21.60;50.50;;;25.45;33.86;100909.72;5114162;28;20086;-10
2021/09/24 00:29:53;;;;;;;1.25;1.08;;;21.50;50.50;;;25.47;33.74;100910.44;5112132;28;20051;-11
2021/09/24 00:32:21;;;;;;;1.02;0.98;;;21.50;50.50;;;25.47;33.83;100910.44;5114046;28;20047;-11
2021/09/24 00:34:48;;;;;;;1.75;0.82;;;21.50;50.50;;;25.46;33.77;100907.88;5114028;28;20071;-10
2021/09/24 00:37:14;;;;;;;1.20;1.05;;;21.50;50.50;;;25.44;33.94;100900.00;5112503;28;20043;-11
2021/09/24 00:39:40;;;;;;;1.20;0.90;;;21.50;50.60;;;25.43;33.74;100900.97;5114027;28;20050;-10
2021/09/24 00:42:06;;;;;;;0.75;0.75;;;21.50;50.50;;;25.46;33.90;100910.56;5113347;28;20059;-10
2021/09/24 00:44:41;;;;;;;1.15;0.90;;;21.50;50.50;;;25.45;33.89;100919.59;5113880;28;20546;-10
2021/09/24 00:47:07;;;;;;;0.90;0.90;;;21.50;50.50;;;25.44;33.85;100918.75;5113979;28;20142;-11
2021/09/24 00:49:33;;;;;;;0.90;0.90;;;21.50;50.60;;;25.44;33.87;100921.44;5113807;28;20073;-11
2021/09/24 00:51:59;;;;;;;2.00;1.10;;;21.50;50.50;;;25.41;33.85;100913.63;5113986;28;20047;-11
2021/09/24 00:54:25;;;;;;;1.00;0.90;;;21.50;50.60;;;25.41;33.79;100912.75;5113728;28;20055;-11
2021/09/24 00:56:52;;;;;;;1.17;0.90;;;21.50;50.60;;;25.44;33.82;100923.22;5095508;28;20044;-11
2021/09/24 00:59:20;;;;;;;0.80;0.80;;;21.50;50.60;;;25.43;33.85;100916.19;5112174;28;20439;-11
2021/09/24 01:01:45;;;;;;;1.15;1.05;;;21.50;50.70;;;25.44;34.03;100921.44;5113859;28;20468;-11
2021/09/24 01:04:13;;;;;;;1.27;0.90;;;21.50;50.70;;;25.41;33.86;100916.31;5113469;28;20059;-11
2021/09/24 01:06:42;;;;;;;1.80;1.15;;;21.50;51.00;;;25.41;33.94;100908.28;5095589;28;20055;-11
2021/09/24 01:09:08;;;;;;;2.33;1.10;;;21.50;50.70;;;25.42;33.97;100915.31;5095134;28;20040;-11
2021/09/24 01:11:36;;;;;;;1.45;1.05;;;21.50;50.60;;;25.42;33.85;100926.03;5113521;28;20526;-11
2021/09/24 01:14:03;;;;;;;1.20;0.80;;;21.50;50.70;;;25.42;33.83;100928.69;5113334;28;20044;-11
2021/09/24 01:16:29;;;;;;;1.42;0.98;;;21.50;50.70;;;25.42;33.89;100923.34;5112956;28;20044;-11
2021/09/24 01:18:55;;;;;;;1.27;1.00;;;21.50;50.70;;;25.42;33.94;100933.22;5112773;28;20096;-10
2021/09/24 01:21:21;;;;;;;1.10;0.80;;;21.50;50.60;;;25.42;33.98;100935.91;5113040;28;20051;-11
2021/09/24 01:23:47;;;;;;;1.63;0.90;;;21.50;50.60;;;25.40;33.81;100937.84;5113556;28;20498;-11
2021/09/24 01:26:13;;;;;;;1.23;0.80;;;21.50;50.60;;;25.40;33.88;100935.16;5113168;28;20055;-11
2021/09/24 01:28:39;;;;;;;1.10;1.00;;;21.50;50.60;;;25.43;33.94;100937.59;5113030;28;20046;-10
2021/09/24 01:31:06;;;;;;;1.50;1.20;;;21.50;50.50;;;25.40;33.87;100927.16;5113003;28;20043;-10
2021/09/24 01:33:32;;;;;;;1.30;1.00;;;21.50;50.50;;;25.40;33.85;100930.66;5113090;28;20047;-11
2021/09/24 01:35:58;;;;;;;1.33;0.90;;;21.50;50.60;;;25.42;33.85;100925.19;5113145;28;20058;-10
2021/09/24 01:38:24;;;;;;;1.30;0.85;;;21.50;50.70;;;25.40;33.85;100932.50;5095029;28;20044;-11
2021/09/24 01:40:50;;;;;;;1.55;1.15;;;21.50;50.70;;;25.39;33.95;100923.59;5113012;28;20128;-10
2021/09/24 01:43:16;;;;;;;1.00;0.85;;;21.50;50.70;;;25.40;33.71;100935.16;5113380;28;20039;-11
2021/09/24 01:45:42;;;;;;;1.17;0.80;;;21.50;51.20;;;25.39;33.96;100923.59;5113439;28;20529;-11
2021/09/24 01:48:07;;;;;;;1.15;0.90;;;21.50;50.70;;;25.39;33.84;100928.94;5112952;28;20054;-10
2021/09/24 01:50:34;;;;;;;1.00;0.82;;;21.50;50.70;;;25.38;33.79;100929.09;5112953;28;20496;-11
2021/09/24 01:53:00;;;;;;;1.05;0.85;;;21.50;50.60;;;25.38;33.86;100918.38;5112769;28;20165;-11
2021/09/24 01:55:26;;;;;;;0.98;0.70;;;21.50;50.70;;;25.39;33.86;100918.25;5115944;28;20547;-15
2021/09/24 01:57:51;;;;;;;1.58;1.10;;;21.50;50.70;;;25.39;33.88;100930.78;5116751;28;20058;-11
2021/09/24 02:00:17;;;;;;;1.40;0.90;;;21.40;50.60;;;25.40;33.83;100930.66;5116454;28;20043;-11
2021/09/24 02:02:43;;;;;;;1.33;0.93;;;21.50;50.70;;;25.39;33.97;100936.13;5116737;28;20468;-11
2021/09/24 02:05:09;;;;;;;1.27;1.00;;;21.50;50.70;;;25.40;33.94;100936.00;5116699;28;20047;-11
2021/09/24 02:07:35;;;;;;;0.70;0.70;;;21.50;50.70;;;25.38;33.86;100929.09;5116773;28;20463;-11
2021/09/24 02:10:05;;;;;;;1.20;0.98;;;21.40;50.60;;;25.38;34.04;100932.63;5116133;28;20044;-11
2021/09/24 02:12:30;;;;;;;1.45;0.95;;;21.50;50.70;;;25.38;33.80;100943.31;5116489;28;20044;-11
2021/09/24 02:14:56;;;;;;;0.90;0.90;;;21.50;50.70;;;25.37;33.99;100944.28;5116106;28;20101;-17
2021/09/24 02:17:22;;;;;;;1.45;0.93;;;21.50;50.60;;;25.38;33.72;100937.13;5116118;28;20063;-11
2021/09/24 02:19:48;;;;;;;1.88;1.10;;;21.40;50.70;;;25.37;33.85;100930.06;5116108;28;20052;-11
2021/09/24 02:22:14;;;;;;;0.90;0.77;;;21.40;50.60;;;25.38;33.97;100929.09;5116044;28;20050;-10
2021/09/24 02:24:39;;;;;;;1.83;1.15;;;21.40;50.70;;;25.38;33.68;100937.13;5116358;28;20051;-11
2021/09/24 02:27:05;;;;;;;1.00;0.90;;;21.40;50.70;;;25.34;33.87;100939.16;5116009;28;20100;-11
2021/09/24 02:29:31;;;;;;;0.80;0.80;;;21.40;50.70;;;25.35;33.94;100932.00;5115872;28;20043;-11
2021/09/24 02:31:57;;;;;;;1.05;0.90;;;21.40;50.70;;;25.35;33.89;100932.84;5116547;28;20056;-11
2021/09/24 02:34:24;;;;;;;0.73;0.73;;;21.40;50.60;;;25.35;33.94;100934.69;5115919;28;20449;-11
2021/09/24 02:36:50;;;;;;;1.00;0.90;;;21.40;50.70;;;25.37;33.86;100944.28;5115898;28;20380;-11
2021/09/24 02:39:17;;;;;;;1.00;0.90;;;21.40;50.70;;;25.37;33.88;100946.13;5115708;28;20051;-11
2021/09/24 02:41:43;;;;;;;0.70;0.70;;;21.40;50.60;;;25.34;33.90;100936.50;5115791;28;20043;-11
2021/09/24 02:44:12;;;;;;;1.13;1.00;;;21.40;50.60;;;25.36;33.74;100947.97;5080616;28;20104;-11
2021/09/24 02:46:38;;;;;;;1.55;0.90;;;21.40;50.70;;;25.38;33.95;100953.19;5115890;28;20048;-11
2021/09/24 02:49:04;;;;;;;1.15;0.82;;;21.40;50.70;;;25.36;33.82;100955.09;5097062;28;20096;-10
2021/09/24 02:51:29;;;;;;;0.98;0.90;;;21.40;50.80;;;25.32;33.88;100949.16;5115803;28;20055;-10
2021/09/24 02:53:55;;;;;;;1.67;1.15;;;21.40;50.70;;;25.36;33.91;100963.13;5115697;28;20051;-11
2021/09/24 02:56:21;;;;;;;1.65;0.80;;;21.40;50.70;;;25.36;33.89;100963.13;5115258;28;20074;-11
2021/09/24 02:58:47;;;;;;;1.40;1.00;;;21.40;50.70;;;25.35;33.76;100959.63;5115359;28;20081;-10
2021/09/24 03:01:12;;;;;;;1.30;1.20;;;21.40;50.70;;;25.35;33.82;100962.28;5115297;28;20051;-10
2021/09/24 03:03:38;;;;;;;1.15;0.82;;;21.40;50.80;;;25.36;33.95;100968.50;5115976;28;20433;-11
2021/09/24 03:06:04;;;;;;;1.38;0.80;;;21.30;50.90;;;25.32;33.92;100959.84;5115072;28;20052;-11
2021/09/24 03:08:30;;;;;;;1.05;0.90;;;21.30;51.00;;;25.31;33.95;100953.66;5115429;28;20051;-11
2021/09/24 03:10:56;;;;;;;1.63;1.15;;;21.20;51.10;;;25.33;34.02;100961.56;5115265;28;20043;-11
2021/09/24 03:13:21;;;;;;;0.73;0.73;;;21.20;51.20;;;25.31;34.03;100959.03;5115323;28;20040;-11
2021/09/24 03:15:47;;;;;;;0.70;0.70;;;21.20;51.20;;;25.32;33.93;100959.84;5115574;28;20051;-11
2021/09/24 03:18:13;;;;;;;1.70;1.20;;;21.20;51.20;;;25.32;33.89;100954.50;5115132;28;20116;-11
2021/09/24 03:20:39;;;;;;;0.80;0.80;;;21.20;51.20;;;25.32;33.90;100955.34;5115163;28;20054;-11
2021/09/24 03:23:05;;;;;;;1.42;0.80;;;21.30;51.20;;;25.36;34.17;100955.09;5096826;28;20035;-11
2021/09/24 03:25:30;;;;;;;0.80;0.73;;;21.20;51.10;;;25.37;34.09;100963.03;5115453;28;20122;-10
2021/09/24 03:27:57;;;;;;;1.13;0.90;;;21.20;51.10;;;25.35;33.82;100958.78;5096551;28;20047;-11
2021/09/24 03:30:24;;;;;;;1.10;0.80;;;21.30;51.10;;;25.38;33.96;100955.88;5096760;28;20050;-11
2021/09/24 03:32:50;;;;;;;1.55;0.98;;;21.30;51.00;;;25.42;33.82;100958.16;5115050;28;20052;-11
2021/09/24 03:35:16;;;;;;;0.77;0.77;;;21.30;51.00;;;25.41;33.97;100959.16;5114938;28;20090;-11
2021/09/24 03:37:42;;;;;;;1.85;0.88;;;21.40;50.90;;;25.42;33.89;100962.66;5114798;28;20512;-10
2021/09/24 03:40:10;;;;;;;2.00;0.82;;;21.40;50.90;;;25.43;33.94;100959.88;5114699;28;20127;-11
2021/09/24 03:42:36;;;;;;;1.52;1.10;;;21.40;50.80;;;25.48;33.90;100959.50;5114741;28;20048;-10
2021/09/24 03:45:04;;;;;;;1.02;0.82;;;21.50;50.70;;;25.46;33.91;100961.44;5114862;28;20051;-11
2021/09/24 03:47:29;;;;;;;0.88;0.88;;;21.50;50.60;;;25.51;33.85;100970.81;5114734;28;20051;-11
2021/09/24 03:49:55;;;;;;;1.75;1.00;;;21.50;50.50;;;25.54;33.80;100966.19;5114598;28;20040;-11
2021/09/24 03:52:21;;;;;;;1.05;0.90;;;21.60;50.50;;;25.53;33.86;100951.97;5114763;28;20043;-11
2021/09/24 03:54:47;;;;;;;1.38;0.93;;;21.60;50.50;;;25.53;33.91;100957.31;5114579;28;20055;-11
2021/09/24 03:57:13;;;;;;;1.00;0.80;;;21.60;50.50;;;25.55;33.78;100957.19;5114880;28;20411;-10
2021/09/24 03:59:38;;;;;;;1.30;0.70;;;21.60;50.50;;;25.57;33.71;100961.44;5114809;28;20502;-11
2021/09/24 04:02:04;;;;;;;1.48;1.05;;;21.50;50.50;;;25.56;33.74;100959.75;5114888;28;20432;-11
2021/09/24 04:04:30;;;;;;;0.75;0.73;;;21.50;50.60;;;25.57;33.87;100948.03;5114533;28;20066;-11
2021/09/24 04:06:56;;;;;;;1.23;0.90;;;21.50;50.60;;;25.58;33.77;100962.31;5114482;28;20058;-11
2021/09/24 04:09:21;;;;;;;1.20;1.10;;;21.50;50.60;;;25.56;33.83;100958.88;5114956;28;20068;-11
2021/09/24 04:11:47;;;;;;;1.90;1.00;;;21.50;50.50;;;25.56;33.72;100965.09;5114361;28;20387;-10
2021/09/24 04:14:13;;;;;;;0.80;0.80;;;21.60;50.50;;;25.59;33.60;100966.66;5114378;28;20119;-11
2021/09/24 04:16:38;;;;;;;1.35;0.90;;;21.60;50.20;;;25.58;33.68;100964.97;5113645;28;20487;-10
2021/09/24 04:19:04;;;;;;;1.10;1.00;;;21.60;50.20;;;25.60;33.53;100968.38;5113848;28;20491;-11
2021/09/24 04:21:30;;;;;;;1.30;1.08;;;21.70;50.70;;;25.60;33.74;100969.22;5094954;28;20463;-11
2021/09/24 04:23:56;;;;;;;0.85;0.73;;;21.70;50.00;;;25.57;33.55;100958.75;5114281;28;20131;-11
2021/09/24 04:26:22;;;;;;;1.35;1.10;;;21.70;50.10;;;25.58;33.57;100968.50;5114443;28;20116;-11
2021/09/24 04:28:47;;;;;;;1.10;0.80;;;21.70;50.10;;;25.59;33.72;100977.38;5114026;28;20122;-11
2021/09/24 04:31:13;;;;;;;1.73;1.10;;;21.60;50.20;;;25.60;33.61;100971.06;5113816;28;20051;-11
2021/09/24 04:33:39;;;;;;;1.45;1.00;;;21.60;50.30;;;25.61;33.68;100978.09;5114009;28;20105;-11
2021/09/24 04:36:05;;;;;;;1.08;0.85;;;21.50;50.40;;;25.58;33.61;100975.69;5095775;28;20139;-11
2021/09/24 04:38:31;;;;;;;1.33;0.90;;;21.50;50.40;;;25.56;33.70;100975.81;5113819;28;20046;-11
2021/09/24 04:40:56;;;;;;;1.15;0.80;;;21.50;50.60;;;25.58;33.64;100981.06;5113874;28;20047;-11
2021/09/24 04:43:22;;;;;;;0.93;0.80;;;21.40;50.60;;;25.56;33.71;100982.97;5113912;28;20059;-11
2021/09/24 04:45:48;;;;;;;1.30;0.70;;;21.50;50.70;;;25.55;33.56;100984.81;5113952;28;20047;-10
2021/09/24 04:48:14;;;;;;;1.15;1.00;;;21.60;50.50;;;25.55;33.64;100978.59;5113811;28;20518;-11
2021/09/24 04:50:39;;;;;;;1.20;0.82;;;21.60;50.30;;;25.56;33.57;100986.53;5113758;28;20403;-11
2021/09/24 04:53:05;;;;;;;2.10;0.90;;;21.60;50.10;;;25.55;33.77;100986.63;5113761;28;20364;-11
2021/09/24 04:55:32;;;;;;;0.93;0.85;;;21.70;50.20;;;25.55;33.63;100978.59;5113747;28;20043;-11
2021/09/24 04:57:57;;;;;;;1.35;0.85;;;21.70;50.10;;;25.52;33.59;100974.34;5113479;28;20082;-10
2021/09/24 05:00:23;;;;;;;1.08;0.82;;;21.70;50.10;;;25.53;33.70;100973.38;5114172;28;20048;-11
2021/09/24 05:02:49;;;;;;;1.10;0.85;;;21.70;50.10;;;25.51;33.47;100975.34;5113595;28;20044;-10
2021/09/24 05:05:14;;;;;;;1.05;0.90;;;21.60;50.00;;;25.52;33.58;100985.88;5113880;28;20055;-11
2021/09/24 05:07:40;;;;;;;0.90;0.80;;;21.60;50.10;;;25.51;33.54;100978.84;5113756;28;20051;-11
2021/09/24 05:10:07;;;;;;;1.02;0.80;;;21.60;50.10;;;25.49;33.52;100986.16;5113525;28;20286;-11
2021/09/24 05:12:33;;;;;;;1.20;0.93;;;21.60;50.70;;;25.50;33.65;100985.16;5113732;28;20051;-11
2021/09/24 05:15:00;;;;;;;1.27;1.00;;;21.60;50.30;;;25.52;33.53;101001.09;5112629;28;20122;-10
2021/09/24 05:17:26;;;;;;;0.80;0.80;;;21.50;50.40;;;25.49;33.53;100998.66;5113316;28;20490;-10
2021/09/24 05:19:52;;;;;;;1.13;0.88;;;21.50;50.40;;;25.48;33.78;100997.00;5113080;28;20051;-11
2021/09/24 05:22:19;;;;;;;1.05;0.85;;;21.50;50.50;;;25.48;33.63;100995.16;5113613;28;20051;-11
2021/09/24 05:24:44;;;;;;;0.93;0.77;;;21.50;50.60;;;25.50;33.67;101003.06;5113539;28;20054;-11
2021/09/24 05:27:10;;;;;;;1.58;1.00;;;21.50;50.70;;;25.47;33.68;100992.59;5113104;28;20052;-11
2021/09/24 05:29:36;;;;;;;1.42;0.85;;;21.40;50.70;;;25.48;33.62;100994.31;5113174;28;20047;-11
2021/09/24 05:32:02;;;;;;;0.80;0.80;;;21.40;50.60;;;25.47;33.62;101001.47;5113043;28;20067;-10
2021/09/24 05:34:28;;;;;;;1.30;0.80;;;21.40;50.70;;;25.46;33.73;100993.56;5113149;28;20051;-11
2021/09/24 05:36:53;;;;;;;0.90;0.77;;;21.40;50.80;;;25.46;33.76;100991.75;5112913;28;20074;-11
2021/09/24 05:39:20;;;;;;;1.77;0.90;;;21.40;50.70;;;25.43;33.68;100997.34;5112979;28;20067;-11
2021/09/24 05:41:46;;;;;;;1.67;0.95;;;21.40;50.60;;;25.43;33.61;100994.66;5112950;28;20051;-11
2021/09/24 05:44:13;;;;;;;1.10;0.95;;;21.40;51.20;;;25.45;33.62;100992.72;5094609;28;20054;-11
2021/09/24 05:46:41;;;;;;;0.80;0.68;;;21.40;50.60;;;25.43;33.75;100983.13;5112893;28;20052;-11
2021/09/24 05:49:08;;;;;;;1.42;0.80;;;21.40;50.60;;;25.45;33.69;100989.19;5112774;28;20047;-10
2021/09/24 05:51:35;;;;;;;2.03;1.08;;;21.40;50.60;;;25.46;33.83;100997.09;5112983;28;20088;-10
2021/09/24 05:54:01;;;;;;;1.60;1.05;;;21.50;50.60;;;25.45;33.58;100998.06;5112821;28;20486;-10
2021/09/24 05:56:27;;;;;;;1.63;1.00;;;21.40;50.60;;;25.45;33.74;100997.22;5112748;28;20483;-11
2021/09/24 05:58:53;;;;;;;1.05;0.80;;;21.40;50.70;;;25.45;33.64;100995.38;5112733;28;20113;-11
2021/09/24 06:01:19;;;;;;;1.13;0.80;;;21.40;50.60;;;25.48;33.71;100988.97;5112455;28;20101;-11
2021/09/24 06:03:44;;;;;;;1.30;0.90;;;21.50;50.60;;;25.49;33.75;100986.16;5112871;28;20403;-17
2021/09/24 06:06:10;;;;;;;0.82;0.82;;;21.50;50.50;;;25.49;33.53;100982.59;5112765;28;20048;-10
2021/09/24 06:08:36;;;;;;;1.20;1.08;;;21.50;50.50;;;25.51;33.60;100988.72;5112615;28;20052;-11
2021/09/24 06:11:02;;;;;;;2.50;0.98;;;21.50;50.50;;;25.52;33.68;100985.88;5112738;28;20089;-10
2021/09/24 06:13:27;;;;;;;2.17;1.20;;;21.50;50.50;;;25.52;33.74;100985.88;5113252;28;20077;-11
2021/09/24 06:15:53;;;;;;;1.08;0.85;;;21.60;50.20;;;25.54;33.56;100988.44;5112597;28;20130;-12
2021/09/24 06:18:19;;;;;;;1.77;0.90;;;21.70;50.00;;;25.58;33.52;100997.13;5112292;28;20437;-12
2021/09/24 06:20:45;;;;;;;1.30;0.90;;;21.60;50.10;;;25.59;33.67;100996.97;5112647;28;20452;-11
2021/09/24 06:23:11;;;;;;;0.93;0.77;;;21.60;50.10;;;25.59;33.60;100994.28;5112406;28;20047;-12
2021/09/24 06:25:37;;;;;;;1.95;0.70;;;21.60;50.20;;;25.58;33.53;101000.63;5112438;28;20101;-12
2021/09/24 06:28:03;;;;;;;1.52;1.10;;;21.60;50.30;;;25.60;33.56;101008.53;5094421;28;20046;-12
2021/09/24 06:30:29;;;;;;;1.42;0.82;;;21.70;50.10;;;25.61;33.43;101008.44;5112963;28;20055;-12
2021/09/24 06:32:55;;;;;;;1.05;0.60;;;21.80;49.90;;;25.61;33.62;101010.22;5112606;28;20043;-12
2021/09/24 06:35:21;;;;;;;1.27;1.00;;;21.80;49.90;;;25.62;33.44;101019.97;5112315;28;20047;-12
2021/09/24 06:37:47;;;;;;;1.02;0.80;;;21.80;49.70;;;25.60;33.55;101014.75;5093925;28;20040;-12
2021/09/24 06:40:14;;;;;;;1.38;0.85;;;21.90;49.60;;;25.62;33.43;101014.63;5113458;28;20047;-12
2021/09/24 06:42:40;;;;;;;0.77;0.77;;;21.90;49.60;;;25.61;33.44;101011.09;5115844;28;20047;-12
2021/09/24 06:45:11;;;;;;;1.25;0.90;;;21.90;49.60;;;25.63;33.39;101024.38;5115751;28;20047;-12
2021/09/24 06:47:37;;;;;;;1.05;0.68;;;21.80;49.80;;;25.68;33.54;101023.03;5115817;28;20048;-12
2021/09/24 06:50:03;;;;;;;1.17;0.90;;;21.80;49.80;;;25.67;33.40;101033.84;5115905;28;20051;-12
2021/09/24 06:52:31;;;;;;;1.52;0.90;;;21.80;49.70;;;25.66;33.62;101026.78;5097368;28;20464;-12
2021/09/24 06:54:58;;;;;;;1.42;0.90;;;21.80;49.50;;;25.64;33.35;101026.06;5115599;28;20074;-12
2021/09/24 06:57:24;;;;;;;1.02;0.80;;;21.80;49.60;;;25.63;33.42;101027.06;5115399;28;20441;-12
2021/09/24 06:59:50;;;;;;;1.85;0.93;;;21.80;49.60;;;25.66;33.35;101027.66;5115561;28;20051;-12
2021/09/24 07:02:15;;;;;;;1.38;0.80;;;21.80;49.70;;;25.67;33.48;101029.34;5116047;28;20395;-12
2021/09/24 07:04:41;;;;;;;1.33;0.90;;;21.70;49.80;;;25.64;33.37;101026.06;5115710;28;20392;-12
2021/09/24 07:07:08;;;;;;;1.35;0.77;;;21.70;49.90;;;25.66;33.40;101027.66;5115206;28;20407;-12
2021/09/24 07:09:34;;;;;;;1.67;0.85;;;21.70;49.90;;;25.65;33.37;101031.28;5097353;28;20043;-12
2021/09/24 07:12:00;;;;;;;1.15;0.85;;;21.70;49.90;;;25.66;33.41;101030.34;5115397;28;20048;-12
2021/09/24 07:14:26;;;;;;;1.42;0.90;;;21.70;50.00;;;25.63;33.38;101030.56;5115219;28;20388;-12
2021/09/24 07:16:52;;;;;;;1.02;0.75;;;21.70;50.10;;;25.64;33.37;101028.72;5115501;28;20105;-12
2021/09/24 07:19:19;;;;;;;2.25;1.10;;;21.60;50.00;;;25.63;33.46;101027.88;5115483;28;20487;-11
2021/09/24 07:21:45;;;;;;;1.52;0.80;;;21.60;50.10;;;25.62;33.41;101023.50;5114871;28;20043;-12
2021/09/24 07:24:12;;;;;;;2.20;1.05;;;21.60;50.30;;;25.61;33.40;101021.81;5115012;28;20052;-12
2021/09/24 07:26:38;;;;;;;1.42;0.82;;;21.60;50.30;;;25.64;33.40;101026.94;5114857;28;20608;-11
2021/09/24 07:29:04;;;;;;;1.13;0.82;;;21.60;50.20;;;25.63;33.53;101024.38;5114726;28;20134;-13
2021/09/24 07:31:30;;;;;;;1.00;0.90;;;21.60;50.10;;;25.64;33.47;101020.69;5114687;28;20130;-12
2021/09/24 07:33:57;;;;;;;1.35;0.80;;;21.60;50.30;;;25.65;33.42;101025.09;5115321;28;20047;-12
2021/09/24 07:36:23;;;;;;;1.08;0.80;;;21.60;50.30;;;25.62;33.36;101023.50;5114480;28;20407;-12
2021/09/24 07:38:50;;;;;;;1.60;1.02;;;21.60;50.20;;;25.61;33.35;101008.44;5115018;28;20059;-12
2021/09/24 07:41:17;;;;;;;1.35;0.90;;;21.60;50.10;;;25.62;33.41;101002.06;5095173;28;20052;-12
2021/09/24 07:43:47;;;;;;;0.88;0.70;;;21.60;50.10;;;25.64;33.40;101001.97;5115178;28;20123;-11
2021/09/24 07:46:13;;;;;;;2.72;1.02;;;21.70;50.00;;;25.64;33.45;100994.78;5114581;28;20044;-12
2021/09/24 07:48:42;;;;;;;1.52;1.00;;;21.70;49.90;;;25.65;33.34;100995.63;5114509;28;20051;-12
2021/09/24 07:51:09;;;;;;;1.58;0.80;;;21.70;49.90;;;25.63;33.40;100992.25;5113848;28;20380;-12
2021/09/24 07:53:35;;;;;;;1.08;0.80;;;21.70;49.90;;;25.66;33.45;100992.84;5114859;28;20047;-12
2021/09/24 07:56:00;;;;;;;1.65;0.90;;;21.80;49.80;;;25.68;33.50;100993.56;5114561;28;20497;-11
2021/09/24 07:58:26;;;;;;;1.45;0.70;;;21.80;49.80;;;25.69;33.35;100989.03;5114495;28;20043;-11
2021/09/24 08:00:52;;;;;;;1.10;0.90;;;21.80;49.70;;;25.72;33.23;100996.00;5114553;28;20047;-11
2021/09/24 08:03:18;;;;;;;1.45;0.90;;;21.80;49.60;;;25.76;33.46;100992.97;5114568;28;20048;-11
2021/09/24 08:05:43;;;;;;;1.33;0.70;;;21.90;49.50;;;25.80;33.30;100986.38;5114718;28;20541;-11
2021/09/24 08:08:09;;;;;;;1.58;0.90;;;21.90;49.50;;;25.85;33.26;100986.84;5114467;28;20127;-12
2021/09/24 08:10:35;;;;;;;2.22;1.10;;;21.90;49.50;;;25.88;33.30;100991.97;5114750;28;20048;-13
2021/09/24 08:13:00;;;;;;;1.02;0.82;;;21.90;49.40;;;25.91;33.28;100996.22;5114307;28;20475;-11
2021/09/24 08:15:26;;;;;;;1.48;1.13;;;22.00;49.40;;;25.92;33.12;100992.56;5114291;28;20460;-11
2021/09/24 08:17:52;;;;;;;2.42;1.50;;;22.00;49.30;;;25.92;33.16;100989.03;5114366;28;20051;-11
2021/09/24 08:20:18;;;;;;;2.47;1.08;;;22.00;49.40;;;25.93;33.01;100990.72;5114005;28;20035;-11
2021/09/24 08:22:44;;;;;;;1.77;1.08;;;22.00;49.40;;;25.96;33.05;100998.53;5114104;28;20093;-11
2021/09/24 08:25:14;;;;;;;2.55;0.90;;;21.90;49.40;;;25.96;33.13;100991.38;5114157;28;20047;-11
2021/09/24 08:27:41;;;;;;;1.23;0.85;;;22.00;49.40;;;25.94;32.98;100990.59;5114680;28;20048;-11
2021/09/24 08:30:11;;;;;;;1.38;0.70;;;22.10;49.20;;;25.94;32.98;100992.44;5114305;28;20407;-11
2021/09/24 08:32:38;;;;;;;1.17;0.83;;;22.10;49.10;;;25.96;33.00;100988.69;5094594;28;20044;-11
2021/09/24 08:35:12;;;;;;;1.27;0.85;;;22.10;49.10;;;25.95;33.06;100994.16;5114065;28;20285;-11
2021/09/24 08:37:39;;;;;;;1.30;1.10;;;22.10;49.00;;;25.96;32.93;100987.81;5113727;28;20134;-11
2021/09/24 08:40:07;;;;;;;1.75;0.98;;;22.10;49.00;;;25.96;33.00;100998.53;5095534;28;20055;-11
2021/09/24 08:42:37;;;;;;;1.23;0.77;;;22.10;49.00;;;25.97;32.94;101001.09;5113753;28;20044;-11
2021/09/24 08:45:03;;;;;;;0.95;0.82;;;22.20;48.90;;;25.96;32.83;101004.78;5093939;28;20048;-11
2021/09/24 08:47:29;;;;;;;2.03;1.00;;;22.20;48.90;;;25.95;32.92;100995.03;5113600;28;20058;-11
2021/09/24 08:49:55;;;;;;;1.67;1.00;;;22.20;48.80;;;25.96;32.89;100998.53;5113760;28;20056;-11
2021/09/24 08:52:20;;;;;;;0.80;0.70;;;22.20;48.80;;;25.97;32.90;101000.25;5113765;28;20384;-11
2021/09/24 08:54:46;;;;;;;1.88;0.85;;;22.20;48.80;;;25.98;32.86;101001.97;5113600;28;20097;-11
2021/09/24 08:57:16;;;;;;;1.20;0.80;;;22.10;48.80;;;25.96;32.97;101004.78;5113653;28;20134;-11
2021/09/24 08:59:42;;;;;;;1.25;0.95;;;22.20;48.80;;;25.96;32.96;100994.06;5113681;28;20048;-11
2021/09/24 09:02:09;;;;;;;1.50;0.88;;;22.10;49.00;;;25.97;32.94;100995.75;5113345;28;20392;-11
2021/09/24 09:04:41;;;;;;;2.55;1.00;;;22.10;48.90;;;25.93;33.06;100991.59;5113351;28;20048;-11
2021/09/24 09:07:10;;;;;;;2.17;0.90;;;22.10;48.90;;;25.94;33.10;100989.75;5113310;28;20556;-11
2021/09/24 09:09:40;;;;;;;1.52;1.10;;;22.10;49.00;;;25.95;32.88;100992.34;5109497;28;20079;-11
2021/09/24 09:12:15;;;;;;;1.58;1.00;;;22.10;49.00;;;25.94;32.94;100997.78;5113635;28;20055;-11
2021/09/24 09:14:43;;;;;;;1.27;0.90;;;22.10;48.90;;;25.94;32.83;100984.41;5113780;28;20046;-11
2021/09/24 09:17:34;;;;;;;2.20;1.10;;;22.10;48.90;;;25.96;32.94;100994.06;5092897;28;20131;-11
2021/09/24 09:20:27;;;;;;;1.52;1.10;;;22.10;49.00;;;25.96;32.98;100985.16;5095020;28;20122;-11
2021/09/24 09:22:58;;;;;;;1.60;1.10;;;22.10;49.00;;;25.94;32.83;100985.25;5113205;28;20469;-11
2021/09/24 09:25:26;;;;;;;3.72;1.05;;;22.10;48.90;;;25.94;33.05;100984.41;5113284;28;20384;-11
2021/09/24 09:27:56;;;;;;;2.33;1.08;;;22.10;49.00;;;25.92;32.98;100984.53;5112971;28;20433;-11
2021/09/24 09:30:23;;;;;;;2.45;1.08;;;22.10;49.00;;;25.94;32.92;100990.59;5112903;28;20055;-11
2021/09/24 09:33:17;;;;;;;2.65;1.10;;;22.10;48.90;;;25.94;32.99;100990.59;5113061;28;20052;-11
2021/09/24 09:35:56;;;;;;;2.83;1.35;;;22.10;48.90;;;25.92;32.99;100989.03;5113503;28;20391;-12
2021/09/24 09:38:27;;;;;;;1.27;1.00;;;22.10;48.90;;;25.95;33.02;100999.50;5113011;28;20052;-12
2021/09/24 09:41:09;;;;;;;1.15;0.95;;;22.10;48.80;;;25.94;32.99;100995.94;5113133;28;20051;-11
2021/09/24 09:43:38;;;;;;;1.42;1.00;;;22.20;48.90;;;25.93;33.01;100996.94;5113363;28;20047;-12
2021/09/24 09:46:21;;;;;;;1.30;0.90;;;22.20;48.80;;;25.95;32.98;101005.75;5113297;28;20172;-12
2021/09/24 09:49:16;;;;;;;2.17;0.93;;;22.20;48.80;;;25.96;32.99;101014.63;5112805;28;20063;-12
2021/09/24 09:51:46;;;;;;;1.10;1.00;;;22.20;48.80;;;25.96;33.01;101012.81;5109176;28;20048;-12
2021/09/24 09:54:29;;;;;;;0.90;0.70;;;22.20;48.80;;;25.97;32.84;101009.13;5112985;28;20052;-11
2021/09/24 09:57:18;;;;;;;1.48;0.90;;;22.20;48.80;;;25.95;32.90;101007.53;5112619;28;20074;-12
2021/09/24 09:59:53;;;;;;;1.83;0.98;;;22.20;48.80;;;25.95;32.95;101012.91;5112757;28;20047;-11
2021/09/24 10:02:31;;;;;;;2.33;1.02;;;22.10;48.80;;;25.95;32.88;101012.91;5112791;28;20043;-11
2021/09/24 10:04:58;;;;;;;1.65;1.10;;;22.20;48.90;;;25.93;33.02;101010.34;5113104;28;20048;-11
2021/09/24 10:07:27;;;;;;;3.00;1.00;;;22.10;48.90;;;25.93;33.03;101006.78;5094442;28;20098;-11
2021/09/24 10:10:14;;;;;;;1.33;1.00;;;22.10;48.90;;;25.95;32.86;101010.22;5112631;28;20051;-10
2021/09/24 10:12:42;;;;;;;0.98;0.90;;;22.10;49.00;;;25.92;32.97;101010.47;5112688;28;20522;-11